sensor_id;sensor_type;location;lat;lon;timestamp;P1;durP1;ratioP1;P2;durP2;ratioP2
61675;SDS011;47574;52.090;5.244;2023-05-21T00:02:11;4.3;;;3.6;;
61675;SDS011;47574;52.090;5.244;2023-05-21T00:03:47;4.8;;;3.0;;
61675;SDS011;47574;52.090;5.244;2023-05-21T00:05:23;4.1;;;3.2;;
61675;SDS011;47574;52.090;5.244;2023-05-21T00:06:59;3.2;;;2.9;;
61675;SDS011;47574;52.090;5.244;2023-05-21T00:10:12;3.4;;;2.7;;
61675;SDS011;47574;52.090;5.244;2023-05-21T00:11:49;4.41;;;3.4;;
61675;SDS011;47574;52.090;5.244;2023-05-21T00:13:25;3.0;;;2.8;;
61675;SDS011;47574;52.090;5.244;2023-05-21T00:16:39;3.4;;;2.6;;
61675;SDS011;47574;52.090;5.244;2023-05-21T00:18:15;3.7;;;2.7;;
61675;SDS011;47574;52.090;5.244;2023-05-21T00:19:51;2.7;;;2.5;;
61675;SDS011;47574;52.090;5.244;2023-05-21T00:23:03;3.0;;;2.31;;
61675;SDS011;47574;52.090;5.244;2023-05-21T00:24:40;3.2;;;2.5;;
61675;SDS011;47574;52.090;5.244;2023-05-21T00:26:16;4.3;;;3.0;;
61675;SDS011;47574;52.090;5.244;2023-05-21T00:29:29;5.4;;;2.7;;
61675;SDS011;47574;52.090;5.244;2023-05-21T00:31:05;2.7;;;2.5;;
61675;SDS011;47574;52.090;5.244;2023-05-21T00:32:41;4.5;;;4.0;;
61675;SDS011;47574;52.090;5.244;2023-05-21T00:34:18;2.8;;;2.6;;
61675;SDS011;47574;52.090;5.244;2023-05-21T00:37:30;4.1;;;2.9;;
61675;SDS011;47574;52.090;5.244;2023-05-21T00:39:06;4.3;;;2.6;;
61675;SDS011;47574;52.090;5.244;2023-05-21T00:40:43;4.61;;;2.8;;
61675;SDS011;47574;52.090;5.244;2023-05-21T00:43:55;3.8;;;2.9;;
61675;SDS011;47574;52.090;5.244;2023-05-21T00:45:32;3.8;;;2.9;;
61675;SDS011;47574;52.090;5.244;2023-05-21T00:47:08;7.2;;;2.9;;
61675;SDS011;47574;52.090;5.244;2023-05-21T00:50:22;3.8;;;3.0;;
61675;SDS011;47574;52.090;5.244;2023-05-21T00:51:58;4.7;;;3.5;;
61675;SDS011;47574;52.090;5.244;2023-05-21T00:53:34;3.9;;;3.4;;
61675;SDS011;47574;52.090;5.244;2023-05-21T00:55:11;4.91;;;2.8;;
61675;SDS011;47574;52.090;5.244;2023-05-21T00:58:25;4.5;;;2.9;;
61675;SDS011;47574;52.090;5.244;2023-05-21T01:00:03;3.1;;;2.6;;
61675;SDS011;47574;52.090;5.244;2023-05-21T01:01:42;3.9;;;2.7;;
61675;SDS011;47574;52.090;5.244;2023-05-21T01:04:56;2.9;;;2.7;;
61675;SDS011;47574;52.090;5.244;2023-05-21T01:06:32;3.2;;;2.9;;
61675;SDS011;47574;52.090;5.244;2023-05-21T01:08:09;2.9;;;2.7;;
61675;SDS011;47574;52.090;5.244;2023-05-21T01:09:46;4.41;;;2.8;;
61675;SDS011;47574;52.090;5.244;2023-05-21T01:13:11;3.3;;;2.7;;
61675;SDS011;47574;52.090;5.244;2023-05-21T01:14:49;3.4;;;3.1;;
61675;SDS011;47574;52.090;5.244;2023-05-21T01:16:27;3.6;;;3.1;;
61675;SDS011;47574;52.090;5.244;2023-05-21T01:19:39;4.2;;;2.9;;
61675;SDS011;47574;52.090;5.244;2023-05-21T01:21:17;4.91;;;3.1;;
61675;SDS011;47574;52.090;5.244;2023-05-21T01:22:56;4.3;;;3.1;;
61675;SDS011;47574;52.090;5.244;2023-05-21T01:24:33;4.0;;;3.3;;
61675;SDS011;47574;52.090;5.244;2023-05-21T01:27:46;4.7;;;3.0;;
61675;SDS011;47574;52.090;5.244;2023-05-21T01:29:22;5.8;;;3.4;;
61675;SDS011;47574;52.090;5.244;2023-05-21T01:31:00;4.1;;;3.0;;
61675;SDS011;47574;52.090;5.244;2023-05-21T01:32:59;3.9;;;3.1;;
61675;SDS011;47574;52.090;5.244;2023-05-21T01:36:26;4.61;;;3.4;;
61675;SDS011;47574;52.090;5.244;2023-05-21T01:38:08;5.8;;;3.8;;
61675;SDS011;47574;52.090;5.244;2023-05-21T01:39:50;3.5;;;3.2;;
61675;SDS011;47574;52.090;5.244;2023-05-21T01:41:32;4.2;;;3.3;;
61675;SDS011;47574;52.090;5.244;2023-05-21T01:44:50;4.2;;;3.3;;
61675;SDS011;47574;52.090;5.244;2023-05-21T01:46:30;3.3;;;3.0;;
61675;SDS011;47574;52.090;5.244;2023-05-21T01:48:09;5.3;;;3.4;;
61675;SDS011;47574;52.090;5.244;2023-05-21T01:49:47;5.7;;;3.6;;
61675;SDS011;47574;52.090;5.244;2023-05-21T01:53:02;3.8;;;3.5;;
61675;SDS011;47574;52.090;5.244;2023-05-21T01:54:38;4.5;;;4.0;;
61675;SDS011;47574;52.090;5.244;2023-05-21T01:56:14;4.41;;;3.5;;
61675;SDS011;47574;52.090;5.244;2023-05-21T01:59:27;4.41;;;3.4;;
61675;SDS011;47574;52.090;5.244;2023-05-21T02:01:05;4.2;;;3.8;;
61675;SDS011;47574;52.090;5.244;2023-05-21T02:02:41;3.7;;;3.3;;
61675;SDS011;47574;52.090;5.244;2023-05-21T02:04:17;5.3;;;3.7;;
61675;SDS011;47574;52.090;5.244;2023-05-21T02:07:29;4.2;;;3.8;;
61675;SDS011;47574;52.090;5.244;2023-05-21T02:09:06;4.8;;;3.8;;
61675;SDS011;47574;52.090;5.244;2023-05-21T02:10:42;4.41;;;4.0;;
61675;SDS011;47574;52.090;5.244;2023-05-21T02:13:55;4.61;;;4.2;;
61675;SDS011;47574;52.090;5.244;2023-05-21T02:15:31;4.61;;;4.2;;
61675;SDS011;47574;52.090;5.244;2023-05-21T02:17:08;6.2;;;4.1;;
61675;SDS011;47574;52.090;5.244;2023-05-21T02:20:21;5.6;;;4.1;;
61675;SDS011;47574;52.090;5.244;2023-05-21T02:21:57;4.0;;;3.7;;
61675;SDS011;47574;52.090;5.244;2023-05-21T02:23:33;5.5;;;4.1;;
61675;SDS011;47574;52.090;5.244;2023-05-21T02:25:10;4.7;;;4.2;;
61675;SDS011;47574;52.090;5.244;2023-05-21T02:28:24;4.3;;;3.9;;
61675;SDS011;47574;52.090;5.244;2023-05-21T02:30:00;6.2;;;4.2;;
61675;SDS011;47574;52.090;5.244;2023-05-21T02:31:37;4.41;;;4.0;;
61675;SDS011;47574;52.090;5.244;2023-05-21T02:34:51;6.9;;;4.3;;
61675;SDS011;47574;52.090;5.244;2023-05-21T02:36:27;5.11;;;4.3;;
61675;SDS011;47574;52.090;5.244;2023-05-21T02:38:03;4.91;;;4.41;;
61675;SDS011;47574;52.090;5.244;2023-05-21T02:41:15;5.3;;;4.3;;
61675;SDS011;47574;52.090;5.244;2023-05-21T02:42:52;4.5;;;4.1;;
61675;SDS011;47574;52.090;5.244;2023-05-21T02:44:28;4.5;;;4.1;;
61675;SDS011;47574;52.090;5.244;2023-05-21T02:46:04;4.5;;;4.1;;
61675;SDS011;47574;52.090;5.244;2023-05-21T02:49:17;4.0;;;3.6;;
61675;SDS011;47574;52.090;5.244;2023-05-21T02:50:53;6.1;;;4.5;;
61675;SDS011;47574;52.090;5.244;2023-05-21T02:52:30;4.8;;;4.3;;
61675;SDS011;47574;52.090;5.244;2023-05-21T02:55:42;5.2;;;4.7;;
61675;SDS011;47574;52.090;5.244;2023-05-21T02:57:18;5.2;;;4.7;;
61675;SDS011;47574;52.090;5.244;2023-05-21T02:58:54;5.4;;;4.7;;
61675;SDS011;47574;52.090;5.244;2023-05-21T03:02:07;5.11;;;4.7;;
61675;SDS011;47574;52.090;5.244;2023-05-21T03:03:43;7.9;;;4.3;;
61675;SDS011;47574;52.090;5.244;2023-05-21T03:05:19;7.6;;;5.0;;
61675;SDS011;47574;52.090;5.244;2023-05-21T03:06:56;5.11;;;4.41;;
61675;SDS011;47574;52.090;5.244;2023-05-21T03:10:08;6.2;;;4.5;;
61675;SDS011;47574;52.090;5.244;2023-05-21T03:11:45;6.0;;;4.3;;
61675;SDS011;47574;52.090;5.244;2023-05-21T03:13:21;5.5;;;4.8;;
61675;SDS011;47574;52.090;5.244;2023-05-21T03:16:33;4.5;;;4.1;;
61675;SDS011;47574;52.090;5.244;2023-05-21T03:18:10;8.31;;;4.61;;
61675;SDS011;47574;52.090;5.244;2023-05-21T03:19:46;5.9;;;4.61;;
61675;SDS011;47574;52.090;5.244;2023-05-21T03:22:58;5.0;;;4.5;;
61675;SDS011;47574;52.090;5.244;2023-05-21T03:24:34;5.7;;;4.41;;
61675;SDS011;47574;52.090;5.244;2023-05-21T03:26:11;6.0;;;4.41;;
61675;SDS011;47574;52.090;5.244;2023-05-21T03:29:23;7.2;;;4.61;;
61675;SDS011;47574;52.090;5.244;2023-05-21T03:30:59;7.2;;;4.61;;
61675;SDS011;47574;52.090;5.244;2023-05-21T03:32:35;5.0;;;4.5;;
61675;SDS011;47574;52.090;5.244;2023-05-21T03:34:13;6.1;;;4.61;;
61675;SDS011;47574;52.090;5.244;2023-05-21T03:37:25;4.8;;;4.41;;
61675;SDS011;47574;52.090;5.244;2023-05-21T03:39:01;5.0;;;4.61;;
61675;SDS011;47574;52.090;5.244;2023-05-21T03:40:37;5.0;;;4.61;;
61675;SDS011;47574;52.090;5.244;2023-05-21T03:43:50;5.4;;;4.91;;
61675;SDS011;47574;52.090;5.244;2023-05-21T03:45:26;5.5;;;4.41;;
61675;SDS011;47574;52.090;5.244;2023-05-21T03:47:02;5.11;;;4.7;;
61675;SDS011;47574;52.090;5.244;2023-05-21T03:50:15;4.91;;;4.5;;
61675;SDS011;47574;52.090;5.244;2023-05-21T03:51:51;4.8;;;4.3;;
61675;SDS011;47574;52.090;5.244;2023-05-21T03:53:27;5.0;;;4.41;;
61675;SDS011;47574;52.090;5.244;2023-05-21T03:55:03;5.0;;;4.41;;
61675;SDS011;47574;52.090;5.244;2023-05-21T03:58:16;6.5;;;4.61;;
61675;SDS011;47574;52.090;5.244;2023-05-21T03:59:52;6.7;;;4.61;;
61675;SDS011;47574;52.090;5.244;2023-05-21T04:01:29;5.5;;;5.0;;
61675;SDS011;47574;52.090;5.244;2023-05-21T04:04:41;5.8;;;4.8;;
61675;SDS011;47574;52.090;5.244;2023-05-21T04:06:17;4.61;;;4.2;;
61675;SDS011;47574;52.090;5.244;2023-05-21T04:07:53;5.6;;;4.5;;
61675;SDS011;47574;52.090;5.244;2023-05-21T04:11:06;6.1;;;4.5;;
61675;SDS011;47574;52.090;5.244;2023-05-21T04:12:42;6.1;;;4.5;;
61675;SDS011;47574;52.090;5.244;2023-05-21T04:14:18;6.4;;;4.7;;
61675;SDS011;47574;52.090;5.244;2023-05-21T04:17:31;5.2;;;4.5;;
61675;SDS011;47574;52.090;5.244;2023-05-21T04:19:07;4.8;;;4.41;;
61675;SDS011;47574;52.090;5.244;2023-05-21T04:20:43;5.6;;;4.5;;
61675;SDS011;47574;52.090;5.244;2023-05-21T04:22:19;5.6;;;4.61;;
61675;SDS011;47574;52.090;5.244;2023-05-21T04:25:32;6.2;;;4.7;;
61675;SDS011;47574;52.090;5.244;2023-05-21T04:27:08;5.9;;;4.5;;
61675;SDS011;47574;52.090;5.244;2023-05-21T04:28:44;5.4;;;4.61;;
61675;SDS011;47574;52.090;5.244;2023-05-21T04:31:57;5.9;;;4.61;;
61675;SDS011;47574;52.090;5.244;2023-05-21T04:33:33;5.11;;;4.61;;
61675;SDS011;47574;52.090;5.244;2023-05-21T04:35:09;4.8;;;4.41;;
61675;SDS011;47574;52.090;5.244;2023-05-21T04:38:22;6.4;;;4.8;;
61675;SDS011;47574;52.090;5.244;2023-05-21T04:39:58;6.6;;;4.3;;
61675;SDS011;47574;52.090;5.244;2023-05-21T04:41:36;4.91;;;4.41;;
61675;SDS011;47574;52.090;5.244;2023-05-21T04:43:12;5.5;;;4.91;;
61675;SDS011;47574;52.090;5.244;2023-05-21T04:46:25;4.7;;;4.2;;
61675;SDS011;47574;52.090;5.244;2023-05-21T04:48:01;5.0;;;4.61;;
61675;SDS011;47574;52.090;5.244;2023-05-21T04:49:38;4.91;;;4.41;;
61675;SDS011;47574;52.090;5.244;2023-05-21T04:52:50;7.0;;;4.7;;
61675;SDS011;47574;52.090;5.244;2023-05-21T04:54:26;6.9;;;4.91;;
61675;SDS011;47574;52.090;5.244;2023-05-21T04:56:04;5.2;;;4.41;;
61675;SDS011;47574;52.090;5.244;2023-05-21T04:59:17;7.2;;;4.5;;
61675;SDS011;47574;52.090;5.244;2023-05-21T05:00:53;5.8;;;4.41;;
61675;SDS011;47574;52.090;5.244;2023-05-21T05:02:29;5.9;;;4.61;;
61675;SDS011;47574;52.090;5.244;2023-05-21T05:04:05;6.5;;;4.5;;
61675;SDS011;47574;52.090;5.244;2023-05-21T05:07:19;5.9;;;4.3;;
61675;SDS011;47574;52.090;5.244;2023-05-21T05:08:55;5.5;;;4.7;;
61675;SDS011;47574;52.090;5.244;2023-05-21T05:10:31;5.7;;;4.8;;
61675;SDS011;47574;52.090;5.244;2023-05-21T05:13:43;5.0;;;4.61;;
61675;SDS011;47574;52.090;5.244;2023-05-21T05:15:20;5.0;;;4.3;;
61675;SDS011;47574;52.090;5.244;2023-05-21T05:16:56;4.41;;;4.1;;
61675;SDS011;47574;52.090;5.244;2023-05-21T05:20:10;5.2;;;4.5;;
61675;SDS011;47574;52.090;5.244;2023-05-21T05:21:46;7.2;;;4.7;;
61675;SDS011;47574;52.090;5.244;2023-05-21T05:23:23;7.4;;;4.91;;
61675;SDS011;47574;52.090;5.244;2023-05-21T05:24:59;6.7;;;4.8;;
61675;SDS011;47574;52.090;5.244;2023-05-21T05:28:12;5.3;;;4.8;;
61675;SDS011;47574;52.090;5.244;2023-05-21T05:29:48;6.0;;;4.7;;
61675;SDS011;47574;52.090;5.244;2023-05-21T05:31:25;6.0;;;5.0;;
61675;SDS011;47574;52.090;5.244;2023-05-21T05:34:37;5.8;;;4.61;;
61675;SDS011;47574;52.090;5.244;2023-05-21T05:36:13;7.9;;;5.0;;
61675;SDS011;47574;52.090;5.244;2023-05-21T05:37:49;5.9;;;4.5;;
61675;SDS011;47574;52.090;5.244;2023-05-21T05:41:02;5.5;;;4.7;;
61675;SDS011;47574;52.090;5.244;2023-05-21T05:42:38;6.1;;;4.91;;
61675;SDS011;47574;52.090;5.244;2023-05-21T05:44:14;7.3;;;5.11;;
61675;SDS011;47574;52.090;5.244;2023-05-21T05:47:26;7.2;;;5.11;;
61675;SDS011;47574;52.090;5.244;2023-05-21T05:49:03;5.8;;;5.2;;
61675;SDS011;47574;52.090;5.244;2023-05-21T05:50:39;8.0;;;4.91;;
61675;SDS011;47574;52.090;5.244;2023-05-21T05:52:15;6.5;;;5.4;;
61675;SDS011;47574;52.090;5.244;2023-05-21T05:55:27;7.2;;;5.2;;
61675;SDS011;47574;52.090;5.244;2023-05-21T05:57:04;6.8;;;5.2;;
61675;SDS011;47574;52.090;5.244;2023-05-21T05:58:41;6.1;;;5.5;;
61675;SDS011;47574;52.090;5.244;2023-05-21T06:01:53;7.6;;;5.7;;
61675;SDS011;47574;52.090;5.244;2023-05-21T06:03:29;7.8;;;5.3;;
61675;SDS011;47574;52.090;5.244;2023-05-21T06:05:06;7.7;;;5.3;;
61675;SDS011;47574;52.090;5.244;2023-05-21T06:08:19;6.0;;;5.4;;
61675;SDS011;47574;52.090;5.244;2023-05-21T06:09:55;7.5;;;5.11;;
61675;SDS011;47574;52.090;5.244;2023-05-21T06:11:31;6.0;;;5.4;;
61675;SDS011;47574;52.090;5.244;2023-05-21T06:13:07;7.0;;;5.5;;
61675;SDS011;47574;52.090;5.244;2023-05-21T06:16:20;6.3;;;5.3;;
61675;SDS011;47574;52.090;5.244;2023-05-21T06:17:56;7.3;;;5.4;;
61675;SDS011;47574;52.090;5.244;2023-05-21T06:19:32;5.9;;;5.4;;
61675;SDS011;47574;52.090;5.244;2023-05-21T06:22:44;6.4;;;5.7;;
61675;SDS011;47574;52.090;5.244;2023-05-21T06:24:20;6.6;;;6.0;;
61675;SDS011;47574;52.090;5.244;2023-05-21T06:25:57;8.6;;;5.8;;
61675;SDS011;47574;52.090;5.244;2023-05-21T06:29:09;6.1;;;5.4;;
61675;SDS011;47574;52.090;5.244;2023-05-21T06:30:45;6.2;;;5.4;;
61675;SDS011;47574;52.090;5.244;2023-05-21T06:32:21;8.1;;;5.9;;
61675;SDS011;47574;52.090;5.244;2023-05-21T06:35:36;6.5;;;5.8;;
61675;SDS011;47574;52.090;5.244;2023-05-21T06:37:12;7.6;;;6.2;;
61675;SDS011;47574;52.090;5.244;2023-05-21T06:38:48;7.7;;;6.3;;
61675;SDS011;47574;52.090;5.244;2023-05-21T06:40:24;10.4;;;6.1;;
61675;SDS011;47574;52.090;5.244;2023-05-21T06:43:37;7.4;;;6.0;;
61675;SDS011;47574;52.090;5.244;2023-05-21T06:45:13;10.21;;;6.5;;
61675;SDS011;47574;52.090;5.244;2023-05-21T06:46:49;7.7;;;5.9;;
61675;SDS011;47574;52.090;5.244;2023-05-21T06:50:03;7.3;;;6.6;;
61675;SDS011;47574;52.090;5.244;2023-05-21T06:51:40;7.1;;;6.1;;
61675;SDS011;47574;52.090;5.244;2023-05-21T06:53:16;9.6;;;6.3;;
61675;SDS011;47574;52.090;5.244;2023-05-21T06:56:29;8.1;;;6.4;;
61675;SDS011;47574;52.090;5.244;2023-05-21T06:58:05;6.3;;;5.7;;
61675;SDS011;47574;52.090;5.244;2023-05-21T06:59:42;7.6;;;6.4;;
61675;SDS011;47574;52.090;5.244;2023-05-21T07:01:18;7.0;;;6.3;;
61675;SDS011;47574;52.090;5.244;2023-05-21T07:04:30;8.1;;;6.7;;
61675;SDS011;47574;52.090;5.244;2023-05-21T07:06:06;8.71;;;6.5;;
61675;SDS011;47574;52.090;5.244;2023-05-21T07:07:43;7.5;;;6.4;;
61675;SDS011;47574;52.090;5.244;2023-05-21T07:10:55;7.6;;;6.4;;
61675;SDS011;47574;52.090;5.244;2023-05-21T07:12:31;9.0;;;6.7;;
61675;SDS011;47574;52.090;5.244;2023-05-21T07:14:07;8.31;;;6.9;;
61675;SDS011;47574;52.090;5.244;2023-05-21T07:17:20;7.0;;;6.0;;
61675;SDS011;47574;52.090;5.244;2023-05-21T07:18:56;6.8;;;6.1;;
61675;SDS011;47574;52.090;5.244;2023-05-21T07:20:32;6.7;;;5.9;;
61675;SDS011;47574;52.090;5.244;2023-05-21T07:22:08;7.2;;;6.3;;
61675;SDS011;47574;52.090;5.244;2023-05-21T07:25:21;7.4;;;6.7;;
61675;SDS011;47574;52.090;5.244;2023-05-21T07:26:58;7.5;;;6.3;;
61675;SDS011;47574;52.090;5.244;2023-05-21T07:28:35;7.8;;;6.7;;
61675;SDS011;47574;52.090;5.244;2023-05-21T07:31:49;8.6;;;6.8;;
61675;SDS011;47574;52.090;5.244;2023-05-21T07:33:25;10.3;;;6.5;;
61675;SDS011;47574;52.090;5.244;2023-05-21T07:35:04;7.7;;;6.8;;
61675;SDS011;47574;52.090;5.244;2023-05-21T07:38:17;7.5;;;6.7;;
61675;SDS011;47574;52.090;5.244;2023-05-21T07:39:53;9.81;;;6.6;;
61675;SDS011;47574;52.090;5.244;2023-05-21T07:41:32;9.71;;;6.7;;
61675;SDS011;47574;52.090;5.244;2023-05-21T07:43:09;7.1;;;6.2;;
61675;SDS011;47574;52.090;5.244;2023-05-21T07:46:23;9.4;;;6.3;;
61675;SDS011;47574;52.090;5.244;2023-05-21T07:47:59;8.0;;;6.5;;
61675;SDS011;47574;52.090;5.244;2023-05-21T07:49:35;10.0;;;6.4;;
61675;SDS011;47574;52.090;5.244;2023-05-21T07:52:47;8.9;;;6.2;;
61675;SDS011;47574;52.090;5.244;2023-05-21T07:54:24;8.9;;;6.8;;
61675;SDS011;47574;52.090;5.244;2023-05-21T07:56:00;8.9;;;6.2;;
61675;SDS011;47574;52.090;5.244;2023-05-21T07:59:13;10.6;;;6.3;;
61675;SDS011;47574;52.090;5.244;2023-05-21T08:00:51;8.1;;;6.6;;
61675;SDS011;47574;52.090;5.244;2023-05-21T08:02:27;9.81;;;6.4;;
61675;SDS011;47574;52.090;5.244;2023-05-21T08:04:03;8.2;;;6.8;;
61675;SDS011;47574;52.090;5.244;2023-05-21T08:07:15;7.1;;;6.1;;
61675;SDS011;47574;52.090;5.244;2023-05-21T08:08:52;7.2;;;6.1;;
61675;SDS011;47574;52.090;5.244;2023-05-21T08:10:29;7.3;;;5.8;;
61675;SDS011;47574;52.090;5.244;2023-05-21T08:13:42;6.5;;;5.9;;
61675;SDS011;47574;52.090;5.244;2023-05-21T08:15:18;7.2;;;6.2;;
61675;SDS011;47574;52.090;5.244;2023-05-21T08:16:54;7.5;;;6.7;;
61675;SDS011;47574;52.090;5.244;2023-05-21T08:20:07;7.0;;;6.2;;
61675;SDS011;47574;52.090;5.244;2023-05-21T08:21:44;8.9;;;6.5;;
61675;SDS011;47574;52.090;5.244;2023-05-21T08:23:20;7.3;;;6.0;;
61675;SDS011;47574;52.090;5.244;2023-05-21T08:24:56;8.1;;;6.0;;
61675;SDS011;47574;52.090;5.244;2023-05-21T08:28:09;6.7;;;6.0;;
61675;SDS011;47574;52.090;5.244;2023-05-21T08:29:45;6.8;;;6.2;;
61675;SDS011;47574;52.090;5.244;2023-05-21T08:31:21;9.31;;;6.9;;
61675;SDS011;47574;52.090;5.244;2023-05-21T08:34:34;7.4;;;6.6;;
61675;SDS011;47574;52.090;5.244;2023-05-21T08:36:10;9.1;;;6.1;;
61675;SDS011;47574;52.090;5.244;2023-05-21T08:37:46;11.0;;;6.6;;
61675;SDS011;47574;52.090;5.244;2023-05-21T08:40:58;9.4;;;6.4;;
61675;SDS011;47574;52.090;5.244;2023-05-21T08:42:38;8.5;;;6.4;;
61675;SDS011;47574;52.090;5.244;2023-05-21T08:44:19;8.5;;;6.2;;
61675;SDS011;47574;52.090;5.244;2023-05-21T08:45:56;8.6;;;6.6;;
61675;SDS011;47574;52.090;5.244;2023-05-21T08:49:17;9.6;;;6.9;;
61675;SDS011;47574;52.090;5.244;2023-05-21T08:51:01;8.9;;;6.6;;
61675;SDS011;47574;52.090;5.244;2023-05-21T08:52:39;7.7;;;6.5;;
61675;SDS011;47574;52.090;5.244;2023-05-21T08:54:16;7.8;;;6.2;;
61675;SDS011;47574;52.090;5.244;2023-05-21T08:57:29;8.9;;;6.4;;
61675;SDS011;47574;52.090;5.244;2023-05-21T08:59:06;7.3;;;6.6;;
61675;SDS011;47574;52.090;5.244;2023-05-21T09:00:43;11.5;;;6.7;;
61675;SDS011;47574;52.090;5.244;2023-05-21T09:03:57;7.3;;;6.5;;
61675;SDS011;47574;52.090;5.244;2023-05-21T09:05:37;8.9;;;6.1;;
61675;SDS011;47574;52.090;5.244;2023-05-21T09:07:15;8.2;;;6.2;;
61675;SDS011;47574;52.090;5.244;2023-05-21T09:08:53;7.4;;;6.6;;
61675;SDS011;47574;52.090;5.244;2023-05-21T09:12:21;7.2;;;6.5;;
61675;SDS011;47574;52.090;5.244;2023-05-21T09:13:58;7.8;;;6.8;;
61675;SDS011;47574;52.090;5.244;2023-05-21T09:15:35;8.81;;;6.3;;
61675;SDS011;47574;52.090;5.244;2023-05-21T09:18:48;7.7;;;6.9;;
61675;SDS011;47574;52.090;5.244;2023-05-21T09:20:26;8.4;;;6.8;;
61675;SDS011;47574;52.090;5.244;2023-05-21T09:22:04;6.8;;;6.2;;
61675;SDS011;47574;52.090;5.244;2023-05-21T09:23:40;11.1;;;7.0;;
61675;SDS011;47574;52.090;5.244;2023-05-21T09:26:59;7.4;;;6.6;;
61675;SDS011;47574;52.090;5.244;2023-05-21T09:28:35;7.1;;;6.4;;
61675;SDS011;47574;52.090;5.244;2023-05-21T09:30:12;8.4;;;6.7;;
61675;SDS011;47574;52.090;5.244;2023-05-21T09:31:51;8.1;;;6.5;;
61675;SDS011;47574;52.090;5.244;2023-05-21T09:35:05;10.21;;;6.6;;
61675;SDS011;47574;52.090;5.244;2023-05-21T09:36:42;7.1;;;6.4;;
61675;SDS011;47574;52.090;5.244;2023-05-21T09:38:20;7.8;;;6.5;;
61675;SDS011;47574;52.090;5.244;2023-05-21T09:41:35;6.7;;;6.0;;
61675;SDS011;47574;52.090;5.244;2023-05-21T09:43:12;8.4;;;6.0;;
61675;SDS011;47574;52.090;5.244;2023-05-21T09:44:49;10.8;;;6.7;;
61675;SDS011;47574;52.090;5.244;2023-05-21T09:48:02;7.6;;;6.8;;
61675;SDS011;47574;52.090;5.244;2023-05-21T09:49:42;7.3;;;6.6;;
61675;SDS011;47574;52.090;5.244;2023-05-21T09:51:19;7.8;;;6.7;;
61675;SDS011;47574;52.090;5.244;2023-05-21T09:52:55;8.1;;;6.5;;
61675;SDS011;47574;52.090;5.244;2023-05-21T09:56:09;10.21;;;6.9;;
61675;SDS011;47574;52.090;5.244;2023-05-21T09:57:45;7.6;;;6.8;;
61675;SDS011;47574;52.090;5.244;2023-05-21T09:59:23;7.0;;;6.3;;
61675;SDS011;47574;52.090;5.244;2023-05-21T10:01:10;6.9;;;6.2;;
61675;SDS011;47574;52.090;5.244;2023-05-21T10:04:29;8.0;;;6.5;;
61675;SDS011;47574;52.090;5.244;2023-05-21T10:06:06;8.2;;;6.6;;
61675;SDS011;47574;52.090;5.244;2023-05-21T10:07:44;7.1;;;6.4;;
61675;SDS011;47574;52.090;5.244;2023-05-21T10:11:04;8.4;;;6.6;;
61675;SDS011;47574;52.090;5.244;2023-05-21T10:12:42;8.1;;;6.8;;
61675;SDS011;47574;52.090;5.244;2023-05-21T10:14:22;8.9;;;6.5;;
61675;SDS011;47574;52.090;5.244;2023-05-21T10:16:02;10.1;;;7.0;;
61675;SDS011;47574;52.090;5.244;2023-05-21T10:19:18;7.0;;;6.3;;
61675;SDS011;47574;52.090;5.244;2023-05-21T10:20:55;8.31;;;6.8;;
61675;SDS011;47574;52.090;5.244;2023-05-21T10:22:33;7.5;;;6.6;;
61675;SDS011;47574;52.090;5.244;2023-05-21T10:24:11;8.2;;;6.5;;
61675;SDS011;47574;52.090;5.244;2023-05-21T10:27:28;7.6;;;6.7;;
61675;SDS011;47574;52.090;5.244;2023-05-21T10:29:07;7.4;;;6.7;;
61675;SDS011;47574;52.090;5.244;2023-05-21T10:30:44;9.0;;;6.4;;
61675;SDS011;47574;52.090;5.244;2023-05-21T10:33:59;9.21;;;6.4;;
61675;SDS011;47574;52.090;5.244;2023-05-21T10:35:38;8.2;;;6.3;;
61675;SDS011;47574;52.090;5.244;2023-05-21T10:37:15;8.31;;;6.5;;
61675;SDS011;47574;52.090;5.244;2023-05-21T10:38:52;7.1;;;6.2;;
61675;SDS011;47574;52.090;5.244;2023-05-21T10:42:09;9.0;;;6.6;;
61675;SDS011;47574;52.090;5.244;2023-05-21T10:44:01;9.81;;;6.8;;
61675;SDS011;47574;52.090;5.244;2023-05-21T10:45:52;8.4;;;6.7;;
61675;SDS011;47574;52.090;5.244;2023-05-21T10:47:52;7.4;;;6.6;;
61675;SDS011;47574;52.090;5.244;2023-05-21T10:49:50;9.5;;;6.4;;
61675;SDS011;47574;52.090;5.244;2023-05-21T10:51:37;8.5;;;7.1;;
61675;SDS011;47574;52.090;5.244;2023-05-21T10:53:27;10.8;;;6.8;;
61675;SDS011;47574;52.090;5.244;2023-05-21T10:57:10;7.0;;;6.3;;
61675;SDS011;47574;52.090;5.244;2023-05-21T10:59:07;9.0;;;6.7;;
61675;SDS011;47574;52.090;5.244;2023-05-21T11:00:55;9.0;;;6.7;;
61675;SDS011;47574;52.090;5.244;2023-05-21T11:02:33;9.21;;;6.3;;
61675;SDS011;47574;52.090;5.244;2023-05-21T11:04:10;7.9;;;6.4;;
61675;SDS011;47574;52.090;5.244;2023-05-21T11:08:01;10.6;;;6.9;;
61675;SDS011;47574;52.090;5.244;2023-05-21T11:09:37;8.71;;;6.1;;
61675;SDS011;47574;52.090;5.244;2023-05-21T11:11:13;8.2;;;6.2;;
61675;SDS011;47574;52.090;5.244;2023-05-21T11:13:15;7.3;;;6.6;;
61675;SDS011;47574;52.090;5.244;2023-05-21T11:14:55;8.31;;;6.6;;
61675;SDS011;47574;52.090;5.244;2023-05-21T11:16:32;7.5;;;6.7;;
61675;SDS011;47574;52.090;5.244;2023-05-21T11:19:48;8.31;;;7.2;;
61675;SDS011;47574;52.090;5.244;2023-05-21T11:21:27;7.3;;;6.6;;
61675;SDS011;47574;52.090;5.244;2023-05-21T11:23:05;8.81;;;6.9;;
61675;SDS011;47574;52.090;5.244;2023-05-21T11:26:17;10.1;;;6.8;;
61675;SDS011;47574;52.090;5.244;2023-05-21T11:27:55;8.6;;;7.0;;
61675;SDS011;47574;52.090;5.244;2023-05-21T11:29:40;9.1;;;7.1;;
61675;SDS011;47574;52.090;5.244;2023-05-21T11:31:22;9.4;;;7.6;;
61675;SDS011;47574;52.090;5.244;2023-05-21T11:35:09;11.8;;;7.0;;
61675;SDS011;47574;52.090;5.244;2023-05-21T11:36:49;8.71;;;7.1;;
61675;SDS011;47574;52.090;5.244;2023-05-21T11:39:07;9.5;;;7.8;;
61675;SDS011;47574;52.090;5.244;2023-05-21T11:40:49;12.2;;;7.3;;
61675;SDS011;47574;52.090;5.244;2023-05-21T11:42:26;9.71;;;7.4;;
61675;SDS011;47574;52.090;5.244;2023-05-21T11:44:07;9.81;;;7.8;;
61675;SDS011;47574;52.090;5.244;2023-05-21T11:45:44;10.7;;;6.8;;
61675;SDS011;47574;52.090;5.244;2023-05-21T11:48:59;10.6;;;6.8;;
61675;SDS011;47574;52.090;5.244;2023-05-21T11:50:37;7.2;;;6.5;;
61675;SDS011;47574;52.090;5.244;2023-05-21T11:52:14;8.31;;;6.6;;
61675;SDS011;47574;52.090;5.244;2023-05-21T11:55:26;6.9;;;6.2;;
61675;SDS011;47574;52.090;5.244;2023-05-21T11:57:04;8.81;;;6.2;;
61675;SDS011;47574;52.090;5.244;2023-05-21T11:58:41;10.0;;;7.1;;
61675;SDS011;47574;52.090;5.244;2023-05-21T12:01:56;9.31;;;7.2;;
61675;SDS011;47574;52.090;5.244;2023-05-21T12:05:09;8.31;;;7.4;;
61675;SDS011;47574;52.090;5.244;2023-05-21T12:06:45;7.8;;;6.8;;
61675;SDS011;47574;52.090;5.244;2023-05-21T12:10:00;9.5;;;6.8;;
61675;SDS011;47574;52.090;5.244;2023-05-21T12:11:36;8.6;;;6.8;;
61675;SDS011;47574;52.090;5.244;2023-05-21T12:13:13;11.5;;;6.6;;
61675;SDS011;47574;52.090;5.244;2023-05-21T12:16:29;7.8;;;7.0;;
61675;SDS011;47574;52.090;5.244;2023-05-21T12:18:06;12.4;;;7.3;;
61675;SDS011;47574;52.090;5.244;2023-05-21T12:19:43;8.2;;;6.7;;
61675;SDS011;47574;52.090;5.244;2023-05-21T12:21:20;7.9;;;6.4;;
61675;SDS011;47574;52.090;5.244;2023-05-21T12:24:33;9.21;;;7.4;;
61675;SDS011;47574;52.090;5.244;2023-05-21T12:26:11;9.4;;;7.0;;
61675;SDS011;47574;52.090;5.244;2023-05-21T12:27:47;10.7;;;6.5;;
61675;SDS011;47574;52.090;5.244;2023-05-21T12:31:01;8.71;;;6.5;;
61675;SDS011;47574;52.090;5.244;2023-05-21T12:32:39;7.7;;;5.6;;
61675;SDS011;47574;52.090;5.244;2023-05-21T12:34:35;9.5;;;7.4;;
61675;SDS011;47574;52.090;5.244;2023-05-21T12:36:19;9.6;;;7.3;;
61675;SDS011;47574;52.090;5.244;2023-05-21T12:39:37;8.81;;;6.8;;
61675;SDS011;47574;52.090;5.244;2023-05-21T12:41:14;8.2;;;6.0;;
61675;SDS011;47574;52.090;5.244;2023-05-21T12:42:51;8.81;;;7.1;;
61675;SDS011;47574;52.090;5.244;2023-05-21T12:44:30;11.1;;;6.7;;
61675;SDS011;47574;52.090;5.244;2023-05-21T12:47:46;7.8;;;6.7;;
61675;SDS011;47574;52.090;5.244;2023-05-21T12:49:39;8.71;;;7.0;;
61675;SDS011;47574;52.090;5.244;2023-05-21T12:51:18;10.1;;;6.9;;
61675;SDS011;47574;52.090;5.244;2023-05-21T12:52:57;8.1;;;7.3;;
61675;SDS011;47574;52.090;5.244;2023-05-21T12:56:13;9.21;;;7.2;;
61675;SDS011;47574;52.090;5.244;2023-05-21T12:57:59;9.0;;;6.9;;